sensor_id;sensor_type;location;lat;lon;timestamp;pressure;altitude;pressure_sealevel;temperature;humidity
49397;BME280;35615;41.410;2.194;2022-07-01T00:00:04;101459.88;;;27.12;51.91
49397;BME280;35615;41.410;2.194;2022-07-01T00:02:38;101470.53;;;27.10;52.14
49397;BME280;35615;41.410;2.194;2022-07-01T00:05:06;101482.78;;;27.17;52.12
49397;BME280;35615;41.410;2.194;2022-07-01T00:07:43;101474.00;;;27.12;52.23
49397;BME280;35615;41.410;2.194;2022-07-01T00:10:11;101473.19;;;27.10;51.91
49397;BME280;35615;41.410;2.194;2022-07-01T00:12:38;101471.28;;;27.15;51.48
49397;BME280;35615;41.410;2.194;2022-07-01T00:15:07;101467.78;;;27.15;50.55
49397;BME280;35615;41.410;2.194;2022-07-01T00:17:36;101463.50;;;27.08;51.21
49397;BME280;35615;41.410;2.194;2022-07-01T00:20:04;101460.63;;;27.20;50.56
49397;BME280;35615;41.410;2.194;2022-07-01T00:22:31;101462.38;;;27.21;50.48
49397;BME280;35615;41.410;2.194;2022-07-01T00:24:58;101472.38;;;27.07;50.96
49397;BME280;35615;41.410;2.194;2022-07-01T00:27:26;101470.59;;;27.07;51.20
49397;BME280;35615;41.410;2.194;2022-07-01T00:29:53;101468.66;;;27.17;51.17
49397;BME280;35615;41.410;2.194;2022-07-01T00:32:20;101473.06;;;27.15;51.01
49397;BME280;35615;41.410;2.194;2022-07-01T00:34:47;101474.91;;;27.11;51.12
49397;BME280;35615;41.410;2.194;2022-07-01T00:37:15;101465.00;;;27.21;50.74
49397;BME280;35615;41.410;2.194;2022-07-01T00:39:42;101458.69;;;27.28;50.75
49397;BME280;35615;41.410;2.194;2022-07-01T00:42:09;101460.50;;;27.25;50.79
49397;BME280;35615;41.410;2.194;2022-07-01T00:44:36;101460.56;;;27.23;50.99
49397;BME280;35615;41.410;2.194;2022-07-01T00:47:09;101454.38;;;27.23;51.23
49397;BME280;35615;41.410;2.194;2022-07-01T00:49:38;101447.19;;;27.29;50.74
49397;BME280;35615;41.410;2.194;2022-07-01T00:52:08;101452.53;;;27.26;51.05
49397;BME280;35615;41.410;2.194;2022-07-01T00:54:37;101447.34;;;27.20;51.53
49397;BME280;35615;41.410;2.194;2022-07-01T00:57:07;101447.56;;;27.09;51.53
49397;BME280;35615;41.410;2.194;2022-07-01T00:59:39;101437.03;;;27.05;51.87
49397;BME280;35615;41.410;2.194;2022-07-01T01:02:09;101435.38;;;26.98;51.70
49397;BME280;35615;41.410;2.194;2022-07-01T01:04:37;101427.91;;;27.19;51.16
49397;BME280;35615;41.410;2.194;2022-07-01T01:07:06;101428.13;;;27.09;51.29
49397;BME280;35615;41.410;2.194;2022-07-01T01:09:33;101426.25;;;27.14;51.13
49397;BME280;35615;41.410;2.194;2022-07-01T01:12:01;101420.94;;;27.14;50.85
49397;BME280;35615;41.410;2.194;2022-07-01T01:14:29;101419.19;;;27.13;50.40
49397;BME280;35615;41.410;2.194;2022-07-01T01:16:57;101415.75;;;27.08;50.71
49397;BME280;35615;41.410;2.194;2022-07-01T01:19:24;101410.25;;;27.18;50.21
49397;BME280;35615;41.410;2.194;2022-07-01T01:21:53;101403.22;;;27.14;50.51
49397;BME280;35615;41.410;2.194;2022-07-01T01:24:20;101419.03;;;27.20;50.89
49397;BME280;35615;41.410;2.194;2022-07-01T01:26:47;101413.03;;;27.11;51.01
49397;BME280;35615;41.410;2.194;2022-07-01T01:29:14;101413.16;;;27.05;51.54
49397;BME280;35615;41.410;2.194;2022-07-01T01:31:43;101413.78;;;27.19;51.06
49397;BME280;35615;41.410;2.194;2022-07-01T01:34:10;101410.28;;;27.17;51.36
49397;BME280;35615;41.410;2.194;2022-07-01T01:36:38;101403.09;;;27.22;51.27
49397;BME280;35615;41.410;2.194;2022-07-01T01:39:05;101409.41;;;27.16;51.54
49397;BME280;35615;41.410;2.194;2022-07-01T01:41:45;101416.31;;;27.24;51.25
49397;BME280;35615;41.410;2.194;2022-07-01T01:44:13;101424.31;;;27.22;51.51
49397;BME280;35615;41.410;2.194;2022-07-01T01:46:40;101416.50;;;27.14;50.89
49397;BME280;35615;41.410;2.194;2022-07-01T01:49:08;101417.41;;;27.13;50.73
49397;BME280;35615;41.410;2.194;2022-07-01T01:51:35;101417.41;;;27.13;50.61
49397;BME280;35615;41.410;2.194;2022-07-01T01:54:03;101416.75;;;27.01;50.42
49397;BME280;35615;41.410;2.194;2022-07-01T01:56:31;101422.13;;;26.98;50.05
49397;BME280;35615;41.410;2.194;2022-07-01T01:58:58;101427.63;;;26.87;50.47
49397;BME280;35615;41.410;2.194;2022-07-01T02:01:27;101427.16;;;27.13;50.18
49397;BME280;35615;41.410;2.194;2022-07-01T02:04:00;101428.41;;;26.90;51.22
49397;BME280;35615;41.410;2.194;2022-07-01T02:06:27;101426.63;;;26.94;51.32
49397;BME280;35615;41.410;2.194;2022-07-01T02:08:55;101423.78;;;27.03;50.57
49397;BME280;35615;41.410;2.194;2022-07-01T02:11:22;101432.91;;;26.87;51.04
49397;BME280;35615;41.410;2.194;2022-07-01T02:13:50;101423.16;;;26.89;51.05
49397;BME280;35615;41.410;2.194;2022-07-01T02:16:17;101422.19;;;26.95;50.86
49397;BME280;35615;41.410;2.194;2022-07-01T02:18:45;101425.94;;;26.83;51.54
49397;BME280;35615;41.410;2.194;2022-07-01T02:21:12;101427.47;;;26.95;51.34
49397;BME280;35615;41.410;2.194;2022-07-01T02:23:40;101419.34;;;27.04;50.04
49397;BME280;35615;41.410;2.194;2022-07-01T02:26:07;101413.25;;;26.99;50.36
49397;BME280;35615;41.410;2.194;2022-07-01T02:28:34;101407.66;;;27.14;49.79
49397;BME280;35615;41.410;2.194;2022-07-01T02:31:02;101411.50;;;26.98;50.38
49397;BME280;35615;41.410;2.194;2022-07-01T02:33:33;101402.53;;;27.05;50.00
49397;BME280;35615;41.410;2.194;2022-07-01T02:36:01;101392.84;;;27.05;49.62
49397;BME280;35615;41.410;2.194;2022-07-01T02:38:29;101403.19;;;27.17;49.67
49397;BME280;35615;41.410;2.194;2022-07-01T02:41:00;101401.47;;;27.15;49.69
49397;BME280;35615;41.410;2.194;2022-07-01T02:43:27;101399.56;;;27.21;49.40
49397;BME280;35615;41.410;2.194;2022-07-01T02:45:59;101400.59;;;27.16;49.61
49397;BME280;35615;41.410;2.194;2022-07-01T02:48:26;101391.59;;;27.21;49.32
49397;BME280;35615;41.410;2.194;2022-07-01T02:50:56;101392.72;;;27.10;49.42
49397;BME280;35615;41.410;2.194;2022-07-01T02:53:24;101388.31;;;27.10;48.80
49397;BME280;35615;41.410;2.194;2022-07-01T02:55:52;101385.69;;;27.09;49.17
49397;BME280;35615;41.410;2.194;2022-07-01T02:58:19;101387.34;;;27.13;48.84
49397;BME280;35615;41.410;2.194;2022-07-01T03:00:47;101379.56;;;27.05;49.38
49397;BME280;35615;41.410;2.194;2022-07-01T03:03:15;101389.38;;;26.99;49.41
49397;BME280;35615;41.410;2.194;2022-07-01T03:05:43;101389.34;;;27.02;48.78
49397;BME280;35615;41.410;2.194;2022-07-01T03:08:11;101391.09;;;27.03;49.26
49397;BME280;35615;41.410;2.194;2022-07-01T03:10:38;101403.47;;;27.02;48.84
49397;BME280;35615;41.410;2.194;2022-07-01T03:13:06;101416.00;;;26.94;49.04
49397;BME280;35615;41.410;2.194;2022-07-01T03:15:33;101411.84;;;26.79;48.99
49397;BME280;35615;41.410;2.194;2022-07-01T03:18:01;101412.44;;;26.93;49.25
49397;BME280;35615;41.410;2.194;2022-07-01T03:20:28;101404.66;;;26.86;48.83
49397;BME280;35615;41.410;2.194;2022-07-01T03:22:55;101406.75;;;26.67;48.50
49397;BME280;35615;41.410;2.194;2022-07-01T03:25:23;101404.50;;;26.46;48.82
49397;BME280;35615;41.410;2.194;2022-07-01T03:27:50;101406.03;;;26.60;48.13
49397;BME280;35615;41.410;2.194;2022-07-01T03:30:17;101405.25;;;26.54;48.10
49397;BME280;35615;41.410;2.194;2022-07-01T03:32:45;101400.75;;;26.57;48.29
49397;BME280;35615;41.410;2.194;2022-07-01T03:35:13;101399.09;;;26.52;47.75
49397;BME280;35615;41.410;2.194;2022-07-01T03:37:59;101400.91;;;26.48;48.01
49397;BME280;35615;41.410;2.194;2022-07-01T03:40:26;101406.91;;;26.58;47.77
49397;BME280;35615;41.410;2.194;2022-07-01T03:42:53;101402.75;;;26.45;47.94
49397;BME280;35615;41.410;2.194;2022-07-01T03:45:21;101412.38;;;26.50;48.01
49397;BME280;35615;41.410;2.194;2022-07-01T03:47:49;101415.03;;;26.49;47.97
49397;BME280;35615;41.410;2.194;2022-07-01T03:50:20;101405.59;;;26.31;48.22
49397;BME280;35615;41.410;2.194;2022-07-01T03:52:49;101417.06;;;26.31;48.37
49397;BME280;35615;41.410;2.194;2022-07-01T03:55:37;101419.69;;;26.33;48.15
49397;BME280;35615;41.410;2.194;2022-07-01T03:58:05;101422.22;;;26.42;48.33
49397;BME280;35615;41.410;2.194;2022-07-01T04:00:34;101425.00;;;26.31;48.08
49397;BME280;35615;41.410;2.194;2022-07-01T04:03:15;101427.69;;;26.30;48.63
49397;BME280;35615;41.410;2.194;2022-07-01T04:05:46;101427.78;;;26.24;48.90
49397;BME280;35615;41.410;2.194;2022-07-01T04:08:15;101421.50;;;26.31;48.94
49397;BME280;35615;41.410;2.194;2022-07-01T04:10:43;101428.50;;;26.33;49.16
49397;BME280;35615;41.410;2.194;2022-07-01T04:13:10;101424.25;;;26.23;49.43
49397;BME280;35615;41.410;2.194;2022-07-01T04:15:59;101433.25;;;26.13;49.77
49397;BME280;35615;41.410;2.194;2022-07-01T04:18:28;101428.72;;;26.21;49.68
49397;BME280;35615;41.410;2.194;2022-07-01T04:20:58;101433.19;;;26.18;50.27
49397;BME280;35615;41.410;2.194;2022-07-01T04:23:44;101443.09;;;26.05;50.63
49397;BME280;35615;41.410;2.194;2022-07-01T04:26:15;101440.25;;;26.16;50.54
49397;BME280;35615;41.410;2.194;2022-07-01T04:29:04;101434.91;;;26.20;50.39
49397;BME280;35615;41.410;2.194;2022-07-01T04:31:32;101428.69;;;26.23;50.60
49397;BME280;35615;41.410;2.194;2022-07-01T04:33:59;101443.81;;;26.15;50.53
49397;BME280;35615;41.410;2.194;2022-07-01T04:36:27;101450.75;;;26.23;50.53
49397;BME280;35615;41.410;2.194;2022-07-01T04:38:56;101443.81;;;26.15;50.38
49397;BME280;35615;41.410;2.194;2022-07-01T04:41:25;101452.97;;;25.92;49.16
49397;BME280;35615;41.410;2.194;2022-07-01T04:44:11;101451.88;;;26.07;48.40
49397;BME280;35615;41.410;2.194;2022-07-01T04:46:43;101460.78;;;26.01;47.75
49397;BME280;35615;41.410;2.194;2022-07-01T04:49:10;101467.78;;;26.07;46.61
49397;BME280;35615;41.410;2.194;2022-07-01T04:51:37;101465.41;;;25.87;45.50
49397;BME280;35615;41.410;2.194;2022-07-01T04:54:05;101477.69;;;25.91;45.24
49397;BME280;35615;41.410;2.194;2022-07-01T04:56:33;101483.72;;;26.02;45.13
49397;BME280;35615;41.410;2.194;2022-07-01T04:59:07;101498.69;;;26.06;44.34
49397;BME280;35615;41.410;2.194;2022-07-01T05:01:37;101492.72;;;25.89;43.97
49397;BME280;35615;41.410;2.194;2022-07-01T05:04:04;101502.25;;;26.02;43.58
49397;BME280;35615;41.410;2.194;2022-07-01T05:06:31;101503.19;;;25.98;43.80
49397;BME280;35615;41.410;2.194;2022-07-01T05:09:01;101505.94;;;25.91;43.45
49397;BME280;35615;41.410;2.194;2022-07-01T05:11:28;101512.91;;;25.98;43.16
49397;BME280;35615;41.410;2.194;2022-07-01T05:13:55;101507.69;;;25.92;43.02
49397;BME280;35615;41.410;2.194;2022-07-01T05:16:22;101509.31;;;26.05;42.95
49397;BME280;35615;41.410;2.194;2022-07-01T05:18:49;101509.50;;;25.88;41.98
49397;BME280;35615;41.410;2.194;2022-07-01T05:21:35;101506.66;;;26.02;41.51
49397;BME280;35615;41.410;2.194;2022-07-01T05:24:25;101513.84;;;25.92;41.09
49397;BME280;35615;41.410;2.194;2022-07-01T05:26:55;101516.50;;;25.95;40.93
49397;BME280;35615;41.410;2.194;2022-07-01T05:29:22;101509.31;;;26.05;41.18
49397;BME280;35615;41.410;2.194;2022-07-01T05:31:49;101515.41;;;26.09;41.21
49397;BME280;35615;41.410;2.194;2022-07-01T05:34:17;101520.75;;;26.05;39.66
49397;BME280;35615;41.410;2.194;2022-07-01T05:36:44;101527.06;;;25.95;39.67
49397;BME280;35615;41.410;2.194;2022-07-01T05:39:11;101527.97;;;25.93;39.58
49397;BME280;35615;41.410;2.194;2022-07-01T05:41:39;101534.47;;;25.64;38.57
49397;BME280;35615;41.410;2.194;2022-07-01T05:44:07;101543.19;;;25.77;38.30
49397;BME280;35615;41.410;2.194;2022-07-01T05:46:34;101537.78;;;25.86;38.36
49397;BME280;35615;41.410;2.194;2022-07-01T05:49:01;101539.72;;;25.72;37.87
49397;BME280;35615;41.410;2.194;2022-07-01T05:51:29;101549.47;;;25.64;37.95
49397;BME280;35615;41.410;2.194;2022-07-01T05:53:56;101549.44;;;25.70;38.17
49397;BME280;35615;41.410;2.194;2022-07-01T05:56:25;101552.75;;;25.89;38.73
49397;BME280;35615;41.410;2.194;2022-07-01T05:58:53;101548.38;;;25.86;37.56
49397;BME280;35615;41.410;2.194;2022-07-01T06:01:22;101557.97;;;25.93;37.41
49397;BME280;35615;41.410;2.194;2022-07-01T06:03:49;101563.16;;;26.01;38.83
49397;BME280;35615;41.410;2.194;2022-07-01T06:06:17;101576.38;;;26.05;38.20
49397;BME280;35615;41.410;2.194;2022-07-01T06:08:46;101584.44;;;25.95;37.95
49397;BME280;35615;41.410;2.194;2022-07-01T06:11:15;101572.84;;;26.03;38.41
49397;BME280;35615;41.410;2.194;2022-07-01T06:13:42;101574.47;;;26.17;38.68
49397;BME280;35615;41.410;2.194;2022-07-01T06:16:09;101581.34;;;26.27;38.24
49397;BME280;35615;41.410;2.194;2022-07-01T06:18:38;101583.94;;;26.33;38.76
49397;BME280;35615;41.410;2.194;2022-07-01T06:21:05;101589.25;;;26.33;37.84
49397;BME280;35615;41.410;2.194;2022-07-01T06:23:33;101590.06;;;26.40;38.06
49397;BME280;35615;41.410;2.194;2022-07-01T06:26:00;101590.09;;;26.35;37.48
49397;BME280;35615;41.410;2.194;2022-07-01T06:28:27;101588.19;;;26.46;37.68
49397;BME280;35615;41.410;2.194;2022-07-01T06:30:57;101596.78;;;26.63;37.97
49397;BME280;35615;41.410;2.194;2022-07-01T06:33:25;101597.56;;;26.70;38.61
49397;BME280;35615;41.410;2.194;2022-07-01T06:35:57;101588.66;;;26.76;37.92
49397;BME280;35615;41.410;2.194;2022-07-01T06:38:25;101595.72;;;26.75;37.08
49397;BME280;35615;41.410;2.194;2022-07-01T06:40:55;101588.69;;;26.71;37.53
49397;BME280;35615;41.410;2.194;2022-07-01T06:43:43;101589.22;;;26.96;37.52
49397;BME280;35615;41.410;2.194;2022-07-01T06:46:15;101595.31;;;27.01;37.26
49397;BME280;35615;41.410;2.194;2022-07-01T06:48:45;101598.00;;;27.00;36.43
49397;BME280;35615;41.410;2.194;2022-07-01T06:51:14;101599.34;;;27.25;36.87
49397;BME280;35615;41.410;2.194;2022-07-01T06:53:42;101606.41;;;27.28;36.54
49397;BME280;35615;41.410;2.194;2022-07-01T06:56:15;101600.13;;;27.32;37.45
49397;BME280;35615;41.410;2.194;2022-07-01T06:58:42;101591.16;;;27.37;38.24
49397;BME280;35615;41.410;2.194;2022-07-01T07:01:10;101594.31;;;27.61;38.12
49397;BME280;35615;41.410;2.194;2022-07-01T07:03:39;101602.31;;;27.58;40.78
49397;BME280;35615;41.410;2.194;2022-07-01T07:06:06;101596.38;;;27.43;43.29
49397;BME280;35615;41.410;2.194;2022-07-01T07:08:33;101602.47;;;27.50;43.30
49397;BME280;35615;41.410;2.194;2022-07-01T07:11:01;101602.59;;;27.42;43.45
49397;BME280;35615;41.410;2.194;2022-07-01T07:13:31;101612.25;;;27.46;44.19
49397;BME280;35615;41.410;2.194;2022-07-01T07:15:58;101621.22;;;27.41;44.33
49397;BME280;35615;41.410;2.194;2022-07-01T07:18:30;101617.91;;;27.25;45.52
49397;BME280;35615;41.410;2.194;2022-07-01T07:20:58;101627.72;;;27.21;45.17
49397;BME280;35615;41.410;2.194;2022-07-01T07:23:26;101620.13;;;26.97;46.25
49397;BME280;35615;41.410;2.194;2022-07-01T07:25:53;101618.78;;;27.26;45.22
49397;BME280;35615;41.410;2.194;2022-07-01T07:28:21;101622.41;;;27.21;45.38
49397;BME280;35615;41.410;2.194;2022-07-01T07:30:51;101628.69;;;27.17;45.58
49397;BME280;35615;41.410;2.194;2022-07-01T07:33:20;101628.72;;;27.16;45.79
49397;BME280;35615;41.410;2.194;2022-07-01T07:35:50;101627.91;;;27.11;45.77
49397;BME280;35615;41.410;2.194;2022-07-01T07:38:18;101623.31;;;27.20;45.56
49397;BME280;35615;41.410;2.194;2022-07-01T07:40:46;101626.03;;;27.17;45.67
49397;BME280;35615;41.410;2.194;2022-07-01T07:43:14;101632.03;;;27.29;45.03
49397;BME280;35615;41.410;2.194;2022-07-01T07:45:41;101630.38;;;27.21;44.94
49397;BME280;35615;41.410;2.194;2022-07-01T07:48:08;101635.19;;;26.95;46.01
49397;BME280;35615;41.410;2.194;2022-07-01T07:50:36;101642.00;;;27.13;45.50
49397;BME280;35615;41.410;2.194;2022-07-01T07:53:05;101641.00;;;27.20;44.97
49397;BME280;35615;41.410;2.194;2022-07-01T07:55:33;101642.63;;;27.30;44.78
49397;BME280;35615;41.410;2.194;2022-07-01T07:58:01;101636.28;;;27.39;44.82
49397;BME280;35615;41.410;2.194;2022-07-01T08:00:28;101651.50;;;27.26;45.20
49397;BME280;35615;41.410;2.194;2022-07-01T08:02:55;101646.84;;;27.42;44.80
49397;BME280;35615;41.410;2.194;2022-07-01T08:05:23;101646.88;;;27.40;44.60
49397;BME280;35615;41.410;2.194;2022-07-01T08:07:50;101646.47;;;27.65;44.46
49397;BME280;35615;41.410;2.194;2022-07-01T08:10:18;101646.38;;;27.68;43.96
49397;BME280;35615;41.410;2.194;2022-07-01T08:12:45;101648.94;;;27.74;44.35
49397;BME280;35615;41.410;2.194;2022-07-01T08:15:12;101649.53;;;27.90;44.17
49397;BME280;35615;41.410;2.194;2022-07-01T08:17:39;101649.25;;;28.05;43.51
49397;BME280;35615;41.410;2.194;2022-07-01T08:20:09;101653.00;;;27.92;44.00
49397;BME280;35615;41.410;2.194;2022-07-01T08:22:39;101656.72;;;28.29;43.42
49397;BME280;35615;41.410;2.194;2022-07-01T08:25:08;101653.44;;;28.15;43.41
49397;BME280;35615;41.410;2.194;2022-07-01T08:27:44;101658.25;;;28.41;42.98
49397;BME280;35615;41.410;2.194;2022-07-01T08:30:11;101655.44;;;28.47;42.40
49397;BME280;35615;41.410;2.194;2022-07-01T08:32:38;101654.88;;;28.33;42.64
49397;BME280;35615;41.410;2.194;2022-07-01T08:35:06;101656.16;;;28.55;42.22
49397;BME280;35615;41.410;2.194;2022-07-01T08:37:36;101654.44;;;28.95;41.49
49397;BME280;35615;41.410;2.194;2022-07-01T08:40:03;101659.13;;;28.80;41.66
49397;BME280;35615;41.410;2.194;2022-07-01T08:42:31;101651.28;;;29.13;41.02
49397;BME280;35615;41.410;2.194;2022-07-01T08:44:58;101659.63;;;28.99;41.31
49397;BME280;35615;41.410;2.194;2022-07-01T08:47:26;101655.38;;;29.28;40.85
49397;BME280;35615;41.410;2.194;2022-07-01T08:49:53;101653.56;;;28.92;41.65
49397;BME280;35615;41.410;2.194;2022-07-01T08:52:21;101658.22;;;28.81;41.94
49397;BME280;35615;41.410;2.194;2022-07-01T08:54:51;101649.19;;;28.90;41.68
49397;BME280;35615;41.410;2.194;2022-07-01T08:57:22;101651.44;;;29.08;41.18
49397;BME280;35615;41.410;2.194;2022-07-01T09:00:04;101652.94;;;29.18;41.06
49397;BME280;35615;41.410;2.194;2022-07-01T09:02:56;101661.06;;;29.49;40.84
49397;BME280;35615;41.410;2.194;2022-07-01T09:05:26;101653.16;;;29.79;40.70
49397;BME280;35615;41.410;2.194;2022-07-01T09:08:00;101661.69;;;29.92;39.93
49397;BME280;35615;41.410;2.194;2022-07-01T09:10:29;101661.16;;;30.12;39.83
49397;BME280;35615;41.410;2.194;2022-07-01T09:13:10;101661.03;;;30.16;39.65
49397;BME280;35615;41.410;2.194;2022-07-01T09:15:41;101662.69;;;30.20;39.61
49397;BME280;35615;41.410;2.194;2022-07-01T09:20:45;101664.91;;;30.03;39.58
49397;BME280;35615;41.410;2.194;2022-07-01T09:23:20;101660.47;;;29.72;39.77
49397;BME280;35615;41.410;2.194;2022-07-01T09:25:49;101661.47;;;29.67;39.54
49397;BME280;35615;41.410;2.194;2022-07-01T09:28:26;101672.88;;;30.06;39.28
49397;BME280;35615;41.410;2.194;2022-07-01T09:30:56;101674.44;;;30.13;39.48
49397;BME280;35615;41.410;2.194;2022-07-01T09:33:28;101686.06;;;30.11;39.17
49397;BME280;35615;41.410;2.194;2022-07-01T09:35:57;101683.28;;;30.45;38.39
49397;BME280;35615;41.410;2.194;2022-07-01T09:38:32;101679.16;;;30.34;38.15
49397;BME280;35615;41.410;2.194;2022-07-01T09:41:02;101694.06;;;30.42;38.14
49397;BME280;35615;41.410;2.194;2022-07-01T09:43:32;101694.28;;;30.01;38.67
49397;BME280;35615;41.410;2.194;2022-07-01T09:46:08;101689.81;;;30.34;38.50
49397;BME280;35615;41.410;2.194;2022-07-01T09:51:06;101700.81;;;30.53;37.87
49397;BME280;35615;41.410;2.194;2022-07-01T09:53:42;101697.75;;;30.67;37.81
49397;BME280;35615;41.410;2.194;2022-07-01T09:56:10;101700.16;;;30.16;38.31
49397;BME280;35615;41.410;2.194;2022-07-01T09:58:38;101707.91;;;30.23;38.26
49397;BME280;35615;41.410;2.194;2022-07-01T10:01:08;101700.13;;;30.47;38.08
49397;BME280;35615;41.410;2.194;2022-07-01T10:03:37;101697.94;;;30.61;37.65
49397;BME280;35615;41.410;2.194;2022-07-01T10:12:05;101700.31;;;31.00;37.37
49397;BME280;35615;41.410;2.194;2022-07-01T10:14:39;101716.00;;;30.81;36.37
49397;BME280;35615;41.410;2.194;2022-07-01T10:17:31;101716.22;;;30.75;37.38
49397;BME280;35615;41.410;2.194;2022-07-01T10:20:28;101713.38;;;30.50;37.32
49397;BME280;35615;41.410;2.194;2022-07-01T10:23:04;101717.13;;;30.12;38.09
49397;BME280;35615;41.410;2.194;2022-07-01T10:28:28;101716.31;;;30.10;38.16
49397;BME280;35615;41.410;2.194;2022-07-01T10:31:06;101720.56;;;30.46;37.52
49397;BME280;35615;41.410;2.194;2022-07-01T10:41:38;101731.88;;;31.13;36.34
49397;BME280;35615;41.410;2.194;2022-07-01T10:44:13;101724.50;;;30.65;37.23
49397;BME280;35615;41.410;2.194;2022-07-01T10:46:57;101730.00;;;30.89;36.63
49397;BME280;35615;41.410;2.194;2022-07-01T10:52:13;101737.81;;;30.65;36.97
49397;BME280;35615;41.410;2.194;2022-07-01T10:54:47;101736.69;;;30.74;37.42
49397;BME280;35615;41.410;2.194;2022-07-01T11:02:35;101737.00;;;30.63;37.40
49397;BME280;35615;41.410;2.194;2022-07-01T11:05:07;101737.59;;;30.42;37.80
49397;BME280;35615;41.410;2.194;2022-07-01T11:07:36;101747.09;;;30.52;37.76
49397;BME280;35615;41.410;2.194;2022-07-01T11:10:10;101744.16;;;30.91;37.41
49397;BME280;35615;41.410;2.194;2022-07-01T11:12:38;101736.09;;;30.92;37.27
49397;BME280;35615;41.410;2.194;2022-07-01T11:15:10;101734.78;;;30.47;37.76
49397;BME280;35615;41.410;2.194;2022-07-01T11:17:49;101728.31;;;30.55;37.07
49397;BME280;35615;41.410;2.194;2022-07-01T11:20:17;101727.50;;;30.53;37.32
49397;BME280;35615;41.410;2.194;2022-07-01T11:22:51;101726.19;;;30.68;36.94
49397;BME280;35615;41.410;2.194;2022-07-01T11:25:20;101732.03;;;30.81;37.21
49397;BME280;35615;41.410;2.194;2022-07-01T11:27:49;101729.75;;;30.38;37.68
49397;BME280;35615;41.410;2.194;2022-07-01T11:30:18;101726.66;;;30.51;37.85
49397;BME280;35615;41.410;2.194;2022-07-01T11:32:57;101723.28;;;30.45;37.81
49397;BME280;35615;41.410;2.194;2022-07-01T11:35:28;101724.66;;;30.28;38.79
49397;BME280;35615;41.410;2.194;2022-07-01T11:38:23;101727.66;;;30.47;38.38
49397;BME280;35615;41.410;2.194;2022-07-01T11:41:20;101718.28;;;30.34;38.21
49397;BME280;35615;41.410;2.194;2022-07-01T11:43:48;101713.06;;;30.60;38.27
49397;BME280;35615;41.410;2.194;2022-07-01T11:46:15;101716.00;;;30.82;38.28
49397;BME280;35615;41.410;2.194;2022-07-01T11:48:50;101717.50;;;30.30;38.12
49397;BME280;35615;41.410;2.194;2022-07-01T11:51:23;101713.19;;;30.56;38.10
49397;BME280;35615;41.410;2.194;2022-07-01T11:53:53;101716.38;;;30.69;37.83
49397;BME280;35615;41.410;2.194;2022-07-01T11:56:34;101713.88;;;30.64;37.55
49397;BME280;35615;41.410;2.194;2022-07-01T11:59:04;101722.25;;;30.50;38.00
49397;BME280;35615;41.410;2.194;2022-07-01T12:01:33;101709.53;;;31.17;37.06
49397;BME280;35615;41.410;2.194;2022-07-01T12:04:04;101722.31;;;31.08;37.09
49397;BME280;35615;41.410;2.194;2022-07-01T12:06:34;101716.88;;;30.52;37.66
49397;BME280;35615;41.410;2.194;2022-07-01T12:09:06;101714.22;;;30.81;37.39
49397;BME280;35615;41.410;2.194;2022-07-01T12:11:35;101715.03;;;30.54;37.51
49397;BME280;35615;41.410;2.194;2022-07-01T12:14:05;101713.28;;;30.53;37.58
49397;BME280;35615;41.410;2.194;2022-07-01T12:16:40;101708.25;;;30.73;37.13
49397;BME280;35615;41.410;2.194;2022-07-01T12:19:12;101709.13;;;30.43;37.42
49397;BME280;35615;41.410;2.194;2022-07-01T12:21:56;101707.59;;;31.22;36.65
49397;BME280;35615;41.410;2.194;2022-07-01T12:24:26;101702.06;;;31.29;35.92
49397;BME280;35615;41.410;2.194;2022-07-01T12:29:48;101701.94;;;30.76;36.00
49397;BME280;35615;41.410;2.194;2022-07-01T12:32:18;101697.97;;;30.89;35.93
49397;BME280;35615;41.410;2.194;2022-07-01T12:34:52;101693.13;;;31.02;36.12
49397;BME280;35615;41.410;2.194;2022-07-01T12:37:37;101686.25;;;31.49;35.07
49397;BME280;35615;41.410;2.194;2022-07-01T12:40:20;101692.78;;;30.84;35.86
49397;BME280;35615;41.410;2.194;2022-07-01T12:42:48;101694.44;;;30.88;36.55
49397;BME280;35615;41.410;2.194;2022-07-01T12:45:22;101702.59;;;30.84;36.01
49397;BME280;35615;41.410;2.194;2022-07-01T12:47:55;101690.22;;;31.09;35.89
49397;BME280;35615;41.410;2.194;2022-07-01T12:50:24;101708.41;;;31.25;35.58
49397;BME280;35615;41.410;2.194;2022-07-01T12:55:32;101690.59;;;31.27;35.32
49397;BME280;35615;41.410;2.194;2022-07-01T12:58:01;101692.09;;;31.34;35.52
49397;BME280;35615;41.410;2.194;2022-07-01T13:00:30;101692.41;;;31.25;35.51
49397;BME280;35615;41.410;2.194;2022-07-01T13:03:02;101697.38;;;31.35;35.31
49397;BME280;35615;41.410;2.194;2022-07-01T13:05:33;101698.53;;;30.72;36.65
49397;BME280;35615;41.410;2.194;2022-07-01T13:08:04;101706.41;;;30.75;36.59
49397;BME280;35615;41.410;2.194;2022-07-01T13:10:33;101697.56;;;31.31;36.10
49397;BME280;35615;41.410;2.194;2022-07-01T13:13:01;101707.88;;;31.41;36.31
49397;BME280;35615;41.410;2.194;2022-07-01T13:15:30;101700.06;;;31.62;35.29
49397;BME280;35615;41.410;2.194;2022-07-01T13:17:59;101708.59;;;31.46;35.84
49397;BME280;35615;41.410;2.194;2022-07-01T13:20:28;101707.22;;;31.07;35.92
49397;BME280;35615;41.410;2.194;2022-07-01T13:22:56;101709.22;;;31.28;35.46
49397;BME280;35615;41.410;2.194;2022-07-01T13:25:24;101697.16;;;30.87;36.56
49397;BME280;35615;41.410;2.194;2022-07-01T13:27:51;101702.78;;;30.78;36.62
49397;BME280;35615;41.410;2.194;2022-07-01T13:30:19;101707.66;;;30.93;36.51
49397;BME280;35615;41.410;2.194;2022-07-01T13:32:49;101708.25;;;30.73;36.47
49397;BME280;35615;41.410;2.194;2022-07-01T13:35:23;101710.66;;;30.82;36.15
49397;BME280;35615;41.410;2.194;2022-07-01T13:37:51;101715.69;;;30.31;37.59
49397;BME280;35615;41.410;2.194;2022-07-01T13:40:20;101704.00;;;30.35;37.25